Time;durP1;ratioP1;P1;durP2;ratioP2;P2;SDS_P1;SDS_P2;PMS_P1;PMS_P2;Temp;Humidity;BMP_temperature;BMP_pressure;BME280_temperature;BME280_humidity;BME280_pressure;Samples;Min_cycle;Max_cycle;Signal;HPM_P1;HPM_P2
2022/08/17 00:00:12;;;;;;;6.17;4.33;;;30.50;46.40;;;;;;5041888;28;86966;-50
2022/08/17 00:03:03;;;;;;;5.40;3.70;;;30.50;46.40;;;;;;5040645;28;87064;-50
2022/08/17 00:05:32;;;;;;;5.80;3.97;;;30.40;46.40;;;;;;5040362;28;89208;-50
2022/08/17 00:08:00;;;;;;;6.23;4.50;;;30.40;46.40;;;;;;5041701;28;89981;-50
2022/08/17 00:10:28;;;;;;;6.67;4.50;;;30.40;46.50;;;;;;5041814;28;86924;-50
2022/08/17 00:13:04;;;;;;;7.10;4.53;;;30.40;46.60;;;;;;5042038;28;87011;-50
2022/08/17 00:15:32;;;;;;;7.97;4.47;;;30.30;46.60;;;;;;5041267;28;88123;-50
2022/08/17 00:18:00;;;;;;;6.53;4.63;;;30.30;46.60;;;;;;5040723;28;87819;-50
2022/08/17 00:20:28;;;;;;;7.00;4.70;;;30.20;46.70;;;;;;5029727;28;86920;-50
2022/08/17 00:23:05;;;;;;;6.20;4.27;;;30.10;47.40;;;;;;5021816;28;86432;-50
2022/08/17 00:25:33;;;;;;;5.83;4.13;;;30.10;46.90;;;;;;5021324;28;88311;-50
2022/08/17 00:28:03;;;;;;;5.90;4.00;;;30.10;47.00;;;;;;5021689;28;87944;-50
2022/08/17 00:30:31;;;;;;;5.73;4.40;;;30.10;47.10;;;;;;5020574;28;88009;-50
2022/08/17 00:33:20;;;;;;;8.40;4.83;;;30.10;47.80;;;;;;5020792;28;87090;-51
2022/08/17 00:35:48;;;;;;;7.73;4.80;;;30.00;47.10;;;;;;5029191;28;88136;-50
2022/08/17 00:38:16;;;;;;;10.90;5.67;;;30.00;47.20;;;;;;5044610;28;87904;-49
2022/08/17 00:40:45;;;;;;;8.87;4.90;;;30.00;47.40;;;;;;5044503;28;87047;-51
2022/08/17 00:43:17;;;;;;;9.00;5.43;;;29.90;47.50;;;;;;5044793;28;86984;-50
2022/08/17 00:45:45;;;;;;;7.53;5.67;;;29.90;47.60;;;;;;5044312;28;88142;-50
2022/08/17 00:48:13;;;;;;;12.73;6.53;;;29.80;47.70;;;;;;5045137;28;88179;-50
2022/08/17 00:51:01;;;;;;;10.47;6.70;;;29.70;47.80;;;;;;5044885;28;87063;-50
2022/08/17 00:53:29;;;;;;;10.90;5.93;;;29.60;48.00;;;;;;5044656;28;87129;-50
2022/08/17 00:55:57;;;;;;;9.07;5.07;;;29.60;48.30;;;;;;5044207;28;90249;-49
2022/08/17 00:58:27;;;;;;;11.93;5.83;;;29.50;48.30;;;;;;5044404;28;88738;-50
2022/08/17 01:01:03;;;;;;;12.53;5.80;;;29.50;48.50;;;;;;5044994;28;86979;-50
2022/08/17 01:03:32;;;;;;;7.90;5.03;;;29.50;49.20;;;;;;5044455;28;87087;-50
2022/08/17 01:06:00;;;;;;;12.10;5.77;;;29.40;48.70;;;;;;5044401;28;89413;-51
2022/08/17 01:08:29;;;;;;;7.67;5.50;;;29.40;48.70;;;;;;5049470;27;87745;-50
2022/08/17 01:11:00;;;;;;;11.13;5.77;;;29.40;48.80;;;;;;5044173;28;87342;-50
2022/08/17 01:13:32;;;;;;;11.30;6.07;;;29.40;48.90;;;;;;5044478;28;86212;-50
2022/08/17 01:16:09;;;;;;;9.80;6.33;;;29.30;49.00;;;;;;5044021;28;88052;-50
2022/08/17 01:18:37;;;;;;;7.83;5.37;;;29.30;49.10;;;;;;5044139;28;89069;-50
2022/08/17 01:21:10;;;;;;;10.03;5.13;;;29.30;49.20;;;;;;5044099;28;87851;-50
2022/08/17 01:23:40;;;;;;;9.47;5.30;;;29.30;49.30;;;;;;5044077;28;87096;-50
2022/08/17 01:26:08;;;;;;;6.93;4.60;;;29.30;49.30;;;;;;5043692;28;89268;-50
2022/08/17 01:28:38;;;;;;;8.90;4.67;;;29.40;49.30;;;;;;5044285;28;86743;-50
2022/08/17 01:31:23;;;;;;;6.70;4.27;;;29.50;49.90;;;;;;5044731;28;86990;-50
2022/08/17 01:33:51;;;;;;;12.60;5.57;;;29.50;49.20;;;;;;5044436;28;87045;-50
2022/08/17 01:36:19;;;;;;;5.60;3.93;;;29.50;49.20;;;;;;5044227;28;87160;-50
2022/08/17 01:38:48;;;;;;;7.13;4.83;;;29.50;49.20;;;;;;5044560;28;88953;-50
2022/08/17 01:41:16;;;;;;;8.67;4.47;;;29.50;49.20;;;;;;5044033;28;87103;-50
2022/08/17 01:43:45;;;;;;;8.43;4.50;;;29.50;49.20;;;;;;5044130;28;87045;-50
2022/08/17 01:46:15;;;;;;;8.60;5.00;;;29.50;49.10;;;;;;5042987;27;89091;-50
2022/08/17 01:48:46;;;;;;;7.00;4.37;;;29.50;49.80;;;;;;5043837;28;88948;-50
2022/08/17 01:51:14;;;;;;;6.13;3.87;;;29.40;49.00;;;;;;5044316;28;86930;-50
2022/08/17 01:53:44;;;;;;;4.50;3.97;;;29.40;49.00;;;;;;5043973;28;86963;-50
2022/08/17 01:56:16;;;;;;;7.00;4.87;;;29.40;49.10;;;;;;5043584;28;88190;-50
2022/08/17 01:58:44;;;;;;;4.80;3.90;;;29.40;49.00;;;;;;5042547;28;89160;-50
2022/08/17 02:01:13;;;;;;;4.67;3.33;;;29.40;49.10;;;;;;5043835;28;87270;-50
2022/08/17 02:03:41;;;;;;;6.27;4.13;;;29.40;49.00;;;;;;5043699;28;86260;-50
2022/08/17 02:06:28;;;;;;;7.53;4.17;;;29.40;49.00;;;;;;5043046;28;88257;-50
2022/08/17 02:08:56;;;;;;;4.73;3.67;;;29.50;49.00;;;;;;5042744;28;88916;-50
2022/08/17 02:11:32;;;;;;;5.03;3.40;;;29.40;48.90;;;;;;5040877;28;88041;-50
2022/08/17 02:14:01;;;;;;;6.40;3.10;;;29.40;48.90;;;;;;5043357;28;87264;-50
2022/08/17 02:16:30;;;;;;;4.47;3.03;;;29.40;48.90;;;;;;5042447;28;89097;-51
2022/08/17 02:19:05;;;;;;;9.33;3.23;;;29.40;48.90;;;;;;5043176;28;87742;-50
2022/08/17 02:21:33;;;;;;;3.40;2.63;;;29.40;48.90;;;;;;5043292;28;87035;-50
2022/08/17 02:24:01;;;;;;;4.03;2.67;;;29.40;48.80;;;;;;5043496;28;87031;-50
2022/08/17 02:26:29;;;;;;;8.07;3.93;;;29.40;48.80;;;;;;5043081;28;89203;-50
2022/08/17 02:28:58;;;;;;;4.57;2.90;;;29.40;48.80;;;;;;5044500;28;86828;-50
2022/08/17 02:31:26;;;;;;;3.87;2.73;;;29.40;48.90;;;;;;5043635;28;86854;-50
2022/08/17 02:33:54;;;;;;;2.87;2.60;;;29.40;48.90;;;;;;5042983;28;87747;-50
2022/08/17 02:36:32;;;;;;;4.13;3.47;;;29.30;48.90;;;;;;5042504;28;90046;-50
2022/08/17 02:39:00;;;;;;;4.47;3.33;;;29.30;49.00;;;;;;5043174;28;89967;-51
2022/08/17 02:41:28;;;;;;;4.40;3.07;;;29.30;49.00;;;;;;5043284;28;86934;-51
2022/08/17 02:43:57;;;;;;;4.90;3.00;;;29.30;49.00;;;;;;5043067;28;87026;-50
2022/08/17 02:46:25;;;;;;;4.90;3.70;;;29.20;48.90;;;;;;5042860;28;89137;-51
2022/08/17 02:48:53;;;;;;;6.33;3.20;;;29.20;49.00;;;;;;5042794;28;88883;-50
2022/08/17 02:51:21;;;;;;;3.83;3.27;;;29.20;49.10;;;;;;5043191;28;87107;-51
2022/08/17 02:53:49;;;;;;;5.87;2.93;;;29.20;49.10;;;;;;5043532;28;86318;-51
2022/08/17 02:56:17;;;;;;;4.00;2.83;;;29.20;49.10;;;;;;5042714;28;89269;-50
2022/08/17 02:58:45;;;;;;;6.17;3.80;;;29.30;49.10;;;;;;5041342;27;87084;-50
2022/08/17 03:01:15;;;;;;;5.10;3.33;;;29.30;49.10;;;;;;5042077;28;87898;-50
2022/08/17 03:03:43;;;;;;;4.80;3.37;;;29.20;49.00;;;;;;5042490;28;87419;-50
2022/08/17 03:06:11;;;;;;;5.30;2.97;;;29.20;49.10;;;;;;5041979;28;88149;-50
2022/08/17 03:08:39;;;;;;;4.77;2.50;;;29.20;49.10;;;;;;5041309;28;88832;-50
2022/08/17 03:11:07;;;;;;;5.77;2.60;;;29.20;49.10;;;;;;5039940;28;87071;-50
2022/08/17 03:13:35;;;;;;;4.10;2.67;;;29.10;49.10;;;;;;5039826;28;87148;-50
2022/08/17 03:16:03;;;;;;;2.30;2.10;;;29.10;49.20;;;;;;5040112;28;89198;-50
2022/08/17 03:18:33;;;;;;;5.63;2.40;;;29.10;49.20;;;;;;5040554;28;87830;-50
2022/08/17 03:21:03;;;;;;;2.73;2.10;;;29.10;49.20;;;;;;5023851;28;87088;-50
2022/08/17 03:23:31;;;;;;;5.23;2.50;;;29.10;49.20;;;;;;5020383;28;87174;-50
2022/08/17 03:25:59;;;;;;;3.10;2.40;;;29.10;49.80;;;;;;5021733;28;89151;-50
2022/08/17 03:28:28;;;;;;;6.07;2.87;;;29.10;49.20;;;;;;5022098;28;89586;-51
2022/08/17 03:30:57;;;;;;;3.77;2.23;;;29.10;49.30;;;;;;5022493;28;87027;-50
2022/08/17 03:33:25;;;;;;;21.23;2.57;;;29.10;49.30;;;;;;5022117;28;87112;-51
2022/08/17 03:35:54;;;;;;;2.73;2.37;;;29.00;49.30;;;;;;5021528;28;88259;-49
2022/08/17 03:38:22;;;;;;;3.30;2.20;;;29.00;49.30;;;;;;5021440;28;87877;-50
2022/08/17 03:40:50;;;;;;;2.67;2.20;;;29.00;49.30;;;;;;5021604;28;87026;-50
2022/08/17 03:43:26;;;;;;;2.53;1.83;;;28.90;49.40;;;;;;5022185;28;86308;-50
2022/08/17 03:57:19;;;;;;;4.80;3.07;;;28.70;49.80;;;;;;5021816;28;89065;-50
2022/08/17 03:59:47;;;;;;;4.37;3.00;;;28.70;49.90;;;;;;5021179;28;88913;-49
2022/08/17 04:02:18;;;;;;;4.87;3.23;;;28.80;49.90;;;;;;5021565;28;86939;-50
2022/08/17 04:04:49;;;;;;;3.90;3.13;;;28.80;49.90;;;;;;5041382;28;87137;-50
2022/08/17 04:07:19;;;;;;;6.23;3.83;;;28.90;50.00;;;;;;5041717;28;89190;-50
2022/08/17 04:09:47;;;;;;;8.37;5.00;;;28.80;50.00;;;;;;5041446;28;89016;-50
2022/08/17 04:12:15;;;;;;;6.50;3.47;;;28.80;50.00;;;;;;5041458;28;87034;-50
2022/08/17 04:14:43;;;;;;;7.87;4.87;;;28.80;50.00;;;;;;5040277;28;86990;-50
2022/08/17 04:17:22;;;;;;;6.77;4.40;;;28.80;50.00;;;;;;5038942;28;90143;-50
2022/08/17 04:19:50;;;;;;;5.70;3.90;;;28.90;50.20;;;;;;5039998;28;87491;-50
2022/08/17 04:22:19;;;;;;;7.97;4.87;;;28.90;50.10;;;;;;5041503;28;87084;-50
2022/08/17 04:25:08;;;;;;;8.87;4.43;;;28.90;50.10;;;;;;5041617;27;87074;-50
2022/08/17 04:27:36;;;;;;;6.63;4.27;;;28.90;50.20;;;;;;5041028;28;89162;-50
2022/08/17 04:30:05;;;;;;;10.00;4.33;;;28.90;50.10;;;;;;5041446;28;87844;-50
2022/08/17 04:36:29;;;;;;;16.97;4.70;;;28.90;50.20;;;;;;5043423;22;89501;-50
2022/08/17 04:39:07;;;;;;;5.30;3.80;;;28.90;50.30;;;;;;5037689;28;88394;-50
2022/08/17 04:44:20;;;;;;;7.63;4.07;;;28.90;50.30;;;;;;5038877;28;88877;-50
2022/08/17 04:47:05;;;;;;;11.43;4.23;;;28.90;50.30;;;;;;5041486;28;87093;-49
2022/08/17 04:49:40;;;;;;;6.83;3.07;;;28.90;50.30;;;;;;5046955;27;89109;-50
2022/08/17 04:52:07;;;;;;;4.53;3.33;;;28.90;50.30;;;;;;5050086;27;87967;-50
2022/08/17 04:54:57;;;;;;;5.43;3.60;;;28.90;50.40;;;;;;5049426;27;87091;-50
2022/08/17 04:57:25;;;;;;;7.97;3.40;;;28.90;50.40;;;;;;5041823;27;87198;-50
2022/08/17 04:59:53;;;;;;;5.03;3.60;;;28.90;50.50;;;;;;5041239;28;89331;-49
2022/08/17 05:02:21;;;;;;;4.97;2.43;;;28.90;50.50;;;;;;5041455;28;87849;-49
2022/08/17 05:04:49;;;;;;;3.03;2.30;;;28.90;50.60;;;;;;5041028;28;87068;-49
2022/08/17 05:07:17;;;;;;;3.20;2.43;;;28.80;50.60;;;;;;5040656;28;87054;-49
2022/08/17 05:09:50;;;;;;;3.20;2.20;;;28.80;50.70;;;;;;5039694;28;88927;-49
2022/08/17 05:12:20;;;;;;;3.00;2.70;;;28.80;51.40;;;;;;5040979;28;88924;-49
2022/08/17 05:14:48;;;;;;;5.57;2.90;;;28.70;50.80;;;;;;5040966;28;86823;-49
2022/08/17 05:17:15;;;;;;;4.37;3.13;;;28.70;50.90;;;;;;5040740;28;87137;-50
2022/08/17 05:19:43;;;;;;;6.47;2.80;;;28.70;51.00;;;;;;5040584;28;88508;-49
2022/08/17 05:22:18;;;;;;;4.50;3.13;;;28.70;51.00;;;;;;5041943;28;87558;-49
2022/08/17 05:24:46;;;;;;;4.53;2.97;;;28.70;51.00;;;;;;5043954;28;86745;-50
2022/08/17 05:27:23;;;;;;;4.13;2.60;;;28.70;51.00;;;;;;5044768;28;86221;-49
2022/08/17 05:29:56;;;;;;;4.13;3.10;;;28.70;51.10;;;;;;5042553;28;87879;-49
2022/08/17 05:32:25;;;;;;;3.23;2.60;;;28.70;51.00;;;;;;5022774;28;88928;-51
2022/08/17 05:35:07;;;;;;;2.63;2.43;;;28.70;51.00;;;;;;5022825;28;87925;-49
2022/08/17 05:37:35;;;;;;;4.27;2.97;;;28.80;51.10;;;;;;5022616;28;87045;-49
2022/08/17 05:40:04;;;;;;;7.87;2.87;;;28.80;51.10;;;;;;5020452;28;88328;-49
2022/08/17 05:42:34;;;;;;;6.57;3.00;;;28.80;51.10;;;;;;5020203;28;88824;-49
2022/08/17 05:45:04;;;;;;;4.50;2.97;;;28.80;51.10;;;;;;5022657;28;87119;-49
2022/08/17 05:47:32;;;;;;;4.80;2.60;;;28.90;51.20;;;;;;5022426;28;87293;-49
2022/08/17 05:50:00;;;;;;;5.07;2.77;;;28.90;51.10;;;;;;5022448;28;88161;-49
2022/08/17 05:52:32;;;;;;;4.23;2.90;;;28.90;51.20;;;;;;5022892;28;86600;-49
2022/08/17 05:55:12;;;;;;;5.40;3.07;;;28.90;51.10;;;;;;5022839;28;87142;-49
2022/08/17 05:57:46;;;;;;;5.87;3.40;;;28.90;51.10;;;;;;5023020;28;87021;-49
2022/08/17 06:00:23;;;;;;;5.70;3.17;;;28.90;51.20;;;;;;5022736;28;89080;-51
2022/08/17 06:03:08;;;;;;;4.87;2.73;;;28.90;51.20;;;;;;5022920;28;88931;-49
2022/08/17 06:05:44;;;;;;;5.57;3.37;;;29.00;51.20;;;;;;5023482;28;87127;-50
2022/08/17 06:08:15;;;;;;;4.90;3.10;;;29.00;51.20;;;;;;5026602;28;87701;-49
2022/08/17 06:10:45;;;;;;;5.07;2.83;;;29.00;51.20;;;;;;5043054;28;89092;-49
2022/08/17 06:13:18;;;;;;;3.57;2.80;;;28.90;51.20;;;;;;5043163;28;87788;-50
2022/08/17 06:15:54;;;;;;;4.63;2.53;;;28.90;51.30;;;;;;5043462;28;87093;-50
2022/08/17 06:18:22;;;;;;;4.43;3.10;;;28.90;51.30;;;;;;5043592;28;86236;-50
2022/08/17 06:20:51;;;;;;;5.40;2.70;;;28.90;51.30;;;;;;5042973;28;88115;-50
2022/08/17 06:23:23;;;;;;;3.90;2.60;;;28.90;51.30;;;;;;5043058;28;87815;-50
2022/08/17 06:25:53;;;;;;;6.43;2.53;;;28.90;51.30;;;;;;5043271;28;87800;-50
2022/08/17 06:28:25;;;;;;;4.30;2.20;;;28.90;51.40;;;;;;5043313;28;87044;-50
2022/08/17 06:30:56;;;;;;;3.50;2.27;;;28.90;51.40;;;;;;5033558;28;88113;-49
2022/08/17 06:33:30;;;;;;;2.57;2.23;;;28.90;51.50;;;;;;5021340;28;88929;-50
2022/08/17 06:36:01;;;;;;;5.47;2.30;;;28.80;51.50;;;;;;5023212;28;87085;-50
2022/08/17 06:38:41;;;;;;;4.63;2.83;;;28.80;51.50;;;;;;5023206;28;86960;-50
2022/08/17 06:41:15;;;;;;;5.57;2.47;;;28.80;51.60;;;;;;5022752;28;88189;-50
2022/08/17 06:43:50;;;;;;;3.07;2.17;;;28.80;51.70;;;;;;5022419;28;87903;-50
2022/08/17 06:46:23;;;;;;;4.70;2.23;;;28.80;51.70;;;;;;5033122;28;87015;-51
2022/08/17 06:48:56;;;;;;;2.43;2.20;;;28.80;51.70;;;;;;5041535;28;87185;-50
2022/08/17 06:51:26;;;;;;;2.53;1.90;;;28.80;51.70;;;;;;5040129;28;90124;-50
2022/08/17 06:53:58;;;;;;;2.67;2.30;;;28.80;51.70;;;;;;5041596;28;90059;-50
2022/08/17 06:56:31;;;;;;;3.77;2.43;;;28.80;51.70;;;;;;5042728;28;86840;-51
2022/08/17 06:59:22;;;;;;;2.70;1.90;;;28.80;51.70;;;;;;5042461;28;89373;-50
2022/08/17 07:01:50;;;;;;;3.87;1.87;;;28.80;51.70;;;;;;5042354;28;89327;-50
2022/08/17 07:04:20;;;;;;;3.10;2.30;;;28.80;51.80;;;;;;5041639;28;88909;-50
2022/08/17 07:06:50;;;;;;;1.87;1.67;;;28.80;51.70;;;;;;5041770;28;86926;-51
2022/08/17 07:09:22;;;;;;;2.57;2.10;;;28.90;51.80;;;;;;5043064;28;86245;-51
2022/08/17 07:11:51;;;;;;;2.27;1.80;;;28.90;51.80;;;;;;5042063;28;89174;-50
2022/08/17 07:14:30;;;;;;;2.83;1.97;;;28.90;51.70;;;;;;5042380;28;87663;-51
2022/08/17 07:16:59;;;;;;;7.23;2.67;;;28.90;51.70;;;;;;5042522;28;88019;-51
2022/08/17 07:19:30;;;;;;;3.60;2.03;;;28.90;51.70;;;;;;5042531;28;87089;-50
2022/08/17 07:22:03;;;;;;;6.93;3.03;;;28.90;51.70;;;;;;5042414;28;89224;-51
2022/08/17 07:24:34;;;;;;;3.30;1.93;;;28.80;51.80;;;;;;5042725;28;87894;-50
2022/08/17 07:27:07;;;;;;;2.47;2.20;;;28.80;51.90;;;;;;5042352;28;86874;-50
2022/08/17 07:29:40;;;;;;;2.73;2.30;;;28.70;52.00;;;;;;5041929;28;87108;-50
2022/08/17 07:32:08;;;;;;;6.93;2.37;;;28.70;52.10;;;;;;5041656;28;89249;-50
2022/08/17 07:35:09;;;;;;;2.07;1.60;;;28.70;52.10;;;;;;5041612;28;88906;-50
2022/08/17 07:37:38;;;;;;;2.93;2.20;;;28.70;52.80;;;;;;5041297;28;87290;-49
2022/08/17 07:40:19;;;;;;;5.13;2.27;;;28.70;52.40;;;;;;5042044;28;87371;-50
2022/08/17 07:43:14;;;;;;;5.13;2.30;;;28.70;52.20;;;;;;5041523;28;90095;-51
2022/08/17 07:48:48;;;;;;;3.30;1.90;;;28.70;52.30;;;;;;5042239;28;86944;-50
2022/08/17 07:51:23;;;;;;;2.87;1.83;;;28.70;52.20;;;;;;5042031;28;87099;-51
2022/08/17 07:53:52;;;;;;;2.63;1.97;;;28.70;52.20;;;;;;5041632;28;89661;-50
2022/08/17 07:56:32;;;;;;;2.57;2.00;;;28.80;52.30;;;;;;5041553;28;87828;-50
2022/08/17 07:59:19;;;;;;;4.63;2.50;;;28.80;52.30;;;;;;5042086;28;86982;-50
2022/08/17 08:02:04;;;;;;;4.83;2.20;;;28.80;52.20;;;;;;5042283;28;86301;-50
2022/08/17 08:04:35;;;;;;;2.77;2.10;;;28.80;52.20;;;;;;5041922;28;89173;-50
2022/08/17 08:07:25;;;;;;;2.80;2.23;;;28.90;52.30;;;;;;5041923;28;89144;-50
2022/08/17 08:10:01;;;;;;;4.97;2.27;;;28.80;52.30;;;;;;5041028;28;87885;-50
2022/08/17 08:12:33;;;;;;;3.40;2.33;;;28.80;52.30;;;;;;5041992;28;87188;-50
2022/08/17 08:15:03;;;;;;;3.90;2.63;;;28.80;52.30;;;;;;5041552;28;89208;-50
2022/08/17 08:17:35;;;;;;;2.63;2.43;;;28.80;52.40;;;;;;5041418;28;88006;-50
2022/08/17 08:20:05;;;;;;;4.67;2.90;;;28.70;52.50;;;;;;5041693;28;86867;-50
2022/08/17 08:22:59;;;;;;;3.20;2.90;;;28.60;52.50;;;;;;5041465;28;86973;-50
2022/08/17 08:25:40;;;;;;;3.70;2.17;;;28.60;52.70;;;;;;5041413;28;89163;-50
2022/08/17 08:28:16;;;;;;;4.27;2.30;;;28.50;52.70;;;;;;5042165;28;87822;-50
2022/08/17 08:30:46;;;;;;;3.07;2.37;;;28.40;52.80;;;;;;5041711;28;87060;-50
2022/08/17 08:33:29;;;;;;;2.93;2.33;;;28.40;52.90;;;;;;5041371;28;86939;-50
2022/08/17 08:36:03;;;;;;;3.37;1.87;;;28.50;52.90;;;;;;5040301;28;90111;-50
2022/08/17 08:38:37;;;;;;;3.47;2.53;;;28.50;52.90;;;;;;5040711;28;88833;-50
2022/08/17 08:41:28;;;;;;;2.17;1.83;;;28.50;52.80;;;;;;5041659;28;87022;-50
2022/08/17 08:44:02;;;;;;;2.67;2.03;;;28.60;52.80;;;;;;5025307;28;87017;-50
2022/08/17 08:46:35;;;;;;;1.83;1.73;;;28.60;52.70;;;;;;5040626;28;89316;-50
2022/08/17 08:49:28;;;;;;;2.47;2.07;;;28.70;52.70;;;;;;5041311;28;88996;-50
2022/08/17 08:52:22;;;;;;;5.87;2.73;;;28.70;52.60;;;;;;5041460;28;86993;-50
2022/08/17 08:54:53;;;;;;;2.60;2.27;;;28.70;52.60;;;;;;5041393;28;86377;-50
2022/08/17 08:57:24;;;;;;;2.70;2.40;;;28.70;52.60;;;;;;5042931;27;89251;-50
2022/08/17 09:00:07;;;;;;;8.63;2.10;;;28.70;52.60;;;;;;5044719;28;88895;-50
2022/08/17 09:03:05;;;;;;;2.00;1.80;;;28.70;52.60;;;;;;5044178;28;88028;-50
2022/08/17 09:05:42;;;;;;;2.40;1.60;;;28.70;52.60;;;;;;5044111;28;87036;-50
2022/08/17 09:08:15;;;;;;;3.20;2.17;;;28.70;52.60;;;;;;5044065;28;89175;-51
2022/08/17 09:10:52;;;;;;;2.50;2.03;;;28.70;52.60;;;;;;5044183;28;88946;-51
2022/08/17 09:13:22;;;;;;;4.33;1.93;;;28.70;52.50;;;;;;5045040;28;87050;-50
2022/08/17 09:15:53;;;;;;;2.23;2.00;;;28.70;53.20;;;;;;5044890;28;87080;-51
2022/08/17 09:18:24;;;;;;;2.13;1.83;;;28.70;52.60;;;;;;5044328;28;88075;-50
2022/08/17 09:21:16;;;;;;;2.43;1.80;;;28.70;53.20;;;;;;5044859;28;87479;-51
2022/08/17 09:23:50;;;;;;;2.87;1.97;;;28.70;52.60;;;;;;5044685;28;87192;-51
2022/08/17 09:26:21;;;;;;;2.73;2.07;;;28.70;52.60;;;;;;5043846;28;87141;-51
2022/08/17 09:28:51;;;;;;;3.23;2.10;;;28.70;52.60;;;;;;5043728;28;89075;-49
2022/08/17 09:31:20;;;;;;;1.70;1.60;;;28.80;52.70;;;;;;5043618;28;89925;-49
2022/08/17 09:33:48;;;;;;;2.13;1.93;;;28.70;52.60;;;;;;5044069;28;87629;-49
2022/08/17 09:36:20;;;;;;;1.73;1.63;;;28.70;52.60;;;;;;5044256;28;87044;-49
2022/08/17 09:38:52;;;;;;;3.50;2.20;;;28.80;52.70;;;;;;5063686;27;88217;-49
2022/08/17 09:41:22;;;;;;;2.40;1.67;;;28.80;52.70;;;;;;5064034;27;87818;-49
2022/08/17 09:43:53;;;;;;;4.97;2.23;;;28.70;52.60;;;;;;5064234;27;87036;-49
2022/08/17 09:46:23;;;;;;;2.80;1.90;;;28.80;52.70;;;;;;5064174;27;86255;-50
2022/08/17 09:48:54;;;;;;;2.73;2.00;;;28.70;52.70;;;;;;5063526;27;88183;-50
2022/08/17 09:51:27;;;;;;;3.63;2.10;;;28.70;52.70;;;;;;5063816;27;87963;-50
2022/08/17 09:53:55;;;;;;;1.53;1.43;;;28.70;52.70;;;;;;5063454;27;88019;-50
2022/08/17 09:56:48;;;;;;;4.50;1.90;;;28.70;52.70;;;;;;5063699;27;87027;-50
2022/08/17 09:59:46;;;;;;;2.23;1.60;;;28.70;52.70;;;;;;5063232;27;87671;-50
2022/08/17 10:02:30;;;;;;;2.60;1.73;;;28.80;52.70;;;;;;5063463;27;88998;-50
2022/08/17 10:05:01;;;;;;;1.50;1.40;;;28.70;52.70;;;;;;5063944;27;87025;-50
2022/08/17 10:07:32;;;;;;;1.47;1.00;;;28.80;52.70;;;;;;5062977;27;87890;-50
2022/08/17 10:10:03;;;;;;;1.43;1.33;;;28.80;52.70;;;;;;5063258;27;88150;-50
2022/08/17 10:12:35;;;;;;;1.63;1.37;;;28.70;52.60;;;;;;5064371;27;89103;-50
2022/08/17 10:15:13;;;;;;;2.90;2.10;;;28.70;52.70;;;;;;5064293;27;87056;-50
2022/08/17 10:17:52;;;;;;;2.27;1.83;;;28.70;52.70;;;;;;5064403;27;86949;-50
2022/08/17 10:20:23;;;;;;;1.87;1.40;;;28.70;52.70;;;;;;5062988;27;90045;-50
2022/08/17 10:28:39;;;;;;;2.93;2.10;;;28.70;52.80;;;;;;5063816;27;87824;-50
2022/08/17 10:31:07;;;;;;;2.43;1.57;;;28.70;52.80;;;;;;5063399;27;88118;-50
2022/08/17 10:34:20;;;;;;;2.37;1.90;;;28.60;52.80;;;;;;5063080;27;88567;-49
2022/08/17 10:36:53;;;;;;;3.07;1.90;;;28.60;52.90;;;;;;5049638;27;87018;-49
2022/08/17 10:39:27;;;;;;;2.10;1.90;;;28.60;52.90;;;;;;5064035;27;86330;-49
2022/08/17 10:41:56;;;;;;;2.10;1.90;;;28.60;52.90;;;;;;5063708;27;87702;-50
2022/08/17 10:44:28;;;;;;;2.83;2.23;;;28.60;52.90;;;;;;5063126;27;88061;-50
2022/08/17 10:47:08;;;;;;;5.70;1.80;;;28.60;52.90;;;;;;5062928;27;87959;-51
2022/08/17 10:49:36;;;;;;;4.10;2.60;;;28.60;52.90;;;;;;5063488;27;87047;-49
2022/08/17 10:52:22;;;;;;;2.60;1.80;;;28.60;52.80;;;;;;5063601;27;88099;-50
2022/08/17 10:55:12;;;;;;;2.30;2.10;;;28.70;52.90;;;;;;5062897;27;88961;-49
2022/08/17 10:57:41;;;;;;;3.10;2.23;;;28.60;52.90;;;;;;5063296;27;87026;-50
2022/08/17 11:00:15;;;;;;;5.47;2.60;;;28.60;53.50;;;;;;5063366;27;87095;-50
2022/08/17 11:02:49;;;;;;;3.87;2.57;;;28.60;52.90;;;;;;5063137;27;88085;-50
2022/08/17 11:05:47;;;;;;;2.57;2.37;;;28.60;52.90;;;;;;5063816;27;88866;-49
2022/08/17 11:08:46;;;;;;;2.80;2.20;;;28.50;52.90;;;;;;5063027;27;87107;-49
2022/08/17 11:11:25;;;;;;;3.30;2.17;;;28.40;52.90;;;;;;5063013;27;87045;-50
2022/08/17 11:14:00;;;;;;;2.77;2.10;;;28.40;52.90;;;;;;5062092;27;87782;-49
2022/08/17 11:16:37;;;;;;;2.83;2.10;;;28.40;52.90;;;;;;5062630;27;89803;-50
2022/08/17 11:19:18;;;;;;;4.50;2.10;;;28.40;53.00;;;;;;5062910;27;86977;-50
2022/08/17 11:22:06;;;;;;;2.97;1.90;;;28.20;52.40;;;;;;5062879;27;86886;-50
2022/08/17 11:24:35;;;;;;;3.27;2.43;;;28.20;53.00;;;;;;5062395;27;89379;-49
2022/08/17 11:27:07;;;;;;;4.80;1.97;;;28.10;53.20;;;;;;5062072;27;88959;-51
2022/08/17 11:29:47;;;;;;;4.10;2.53;;;28.00;53.30;;;;;;5062769;27;87036;-49
2022/08/17 11:32:36;;;;;;;4.10;2.20;;;28.00;53.40;;;;;;5062900;27;86340;-49
2022/08/17 11:35:34;;;;;;;2.83;2.50;;;27.90;53.40;;;;;;5062522;27;87214;-49
2022/08/17 11:38:12;;;;;;;3.40;2.50;;;27.80;53.50;;;;;;5062401;27;87822;-50
2022/08/17 11:41:00;;;;;;;4.10;2.90;;;27.70;53.70;;;;;;5062392;27;87962;-52
2022/08/17 11:43:53;;;;;;;3.67;2.50;;;27.60;53.90;;;;;;5062539;27;87044;-50
2022/08/17 11:51:32;;;;;;;3.73;2.47;;;27.60;54.00;;;;;;5062794;27;89144;-50
2022/08/17 11:52:38;;;;;;;3.70;2.70;;;27.70;54.20;;;;;;5062638;27;88097;-49
2022/08/17 11:55:08;;;;;;;2.37;1.90;;;27.70;54.30;;;;;;5062607;27;87027;-51
2022/08/17 11:57:59;;;;;;;4.67;2.23;;;27.70;54.30;;;;;;5062080;27;89904;-51
2022/08/17 12:00:53;;;;;;;2.47;2.27;;;27.70;54.30;;;;;;5062345;27;87409;-50
2022/08/17 12:03:45;;;;;;;3.00;2.30;;;27.70;54.40;;;;;;5061982;27;87074;-50
2022/08/17 12:06:42;;;;;;;3.00;2.23;;;27.70;54.40;;;;;;5061997;27;86911;-51
2022/08/17 12:09:13;;;;;;;3.23;2.13;;;27.70;54.50;;;;;;5061688;27;89146;-50
2022/08/17 12:11:45;;;;;;;3.73;2.87;;;27.80;54.60;;;;;;5061507;27;89326;-51
2022/08/17 12:14:34;;;;;;;3.00;2.07;;;27.80;54.60;;;;;;5062275;27;86880;-51
2022/08/17 12:17:24;;;;;;;4.47;2.67;;;27.80;54.60;;;;;;5061973;27;86993;-49
2022/08/17 12:20:12;;;;;;;3.40;2.30;;;27.90;54.70;;;;;;5061444;27;88010;-48
2022/08/17 12:22:45;;;;;;;2.97;2.10;;;27.90;54.70;;;;;;5061603;27;88793;-49
2022/08/17 12:25:16;;;;;;;3.57;2.43;;;27.90;54.70;;;;;;5061583;27;87096;-49
2022/08/17 12:27:46;;;;;;;2.93;2.10;;;27.90;54.80;;;;;;5062122;27;86335;-50
2022/08/17 12:30:34;;;;;;;2.80;2.00;;;27.90;54.80;;;;;;5061770;27;89471;-49
2022/08/17 12:33:03;;;;;;;3.97;2.43;;;27.90;54.80;;;;;;5061845;27;88863;-50
2022/08/17 12:35:35;;;;;;;2.73;2.00;;;27.90;54.90;;;;;;5061452;27;87861;-51
2022/08/17 12:38:06;;;;;;;3.23;2.40;;;27.90;54.90;;;;;;5061833;27;86896;-51
2022/08/17 12:40:54;;;;;;;4.17;2.70;;;27.90;54.90;;;;;;5061424;27;90418;-51
2022/08/17 12:43:26;;;;;;;4.40;2.77;;;27.90;55.00;;;;;;5061662;27;88871;-51
2022/08/17 12:45:56;;;;;;;3.80;2.00;;;27.80;55.00;;;;;;5061961;27;86766;-51
2022/08/17 12:48:26;;;;;;;4.37;2.60;;;27.80;55.10;;;;;;5061491;27;86862;-51
2022/08/17 12:50:59;;;;;;;3.23;2.43;;;27.90;55.10;;;;;;5061674;27;89249;-49
2022/08/17 12:53:28;;;;;;;3.23;2.57;;;27.90;55.10;;;;;;5061968;27;89102;-49
2022/08/17 12:55:56;;;;;;;3.87;2.30;;;27.90;55.20;;;;;;5061455;27;86875;-49
2022/08/17 12:58:26;;;;;;;5.43;2.37;;;27.90;55.10;;;;;;5061911;27;87109;-49
2022/08/17 13:00:58;;;;;;;3.73;2.70;;;27.90;55.10;;;;;;5061048;27;90205;-50
2022/08/17 13:03:30;;;;;;;3.43;2.17;;;28.00;55.20;;;;;;5061621;27;89905;-50
2022/08/17 13:06:05;;;;;;;5.73;2.57;;;28.00;55.30;;;;;;5061303;27;87049;-49
2022/08/17 13:08:34;;;;;;;2.43;2.00;;;28.00;55.20;;;;;;5061824;27;86964;-50
2022/08/17 13:11:04;;;;;;;3.50;2.30;;;28.10;55.20;;;;;;5060964;27;89407;-50
2022/08/17 13:13:33;;;;;;;4.13;2.70;;;28.10;55.20;;;;;;5061295;27;87844;-49
2022/08/17 13:16:02;;;;;;;4.67;2.60;;;28.10;55.30;;;;;;5061705;27;87146;-50
2022/08/17 13:18:40;;;;;;;3.17;2.67;;;28.10;55.30;;;;;;5061916;27;86446;-50
2022/08/17 13:21:18;;;;;;;4.97;2.80;;;28.00;55.30;;;;;;5061307;27;89124;-49
2022/08/17 13:23:57;;;;;;;7.80;2.80;;;28.00;55.40;;;;;;5061113;27;88967;-49
2022/08/17 13:26:28;;;;;;;5.00;3.00;;;28.00;55.40;;;;;;5060521;27;87887;-49
2022/08/17 13:28:56;;;;;;;4.17;2.47;;;28.00;55.40;;;;;;5061191;27;87070;-49
2022/08/17 13:31:32;;;;;;;3.50;2.50;;;28.00;55.40;;;;;;5061056;27;89183;-49
2022/08/17 13:34:34;;;;;;;2.80;2.27;;;28.00;56.10;;;;;;5060736;27;87867;-49
2022/08/17 13:37:31;;;;;;;2.30;2.10;;;28.00;55.40;;;;;;5060923;27;87165;-49
2022/08/17 13:40:01;;;;;;;4.33;2.67;;;28.00;55.50;;;;;;5061812;27;86945;-49
2022/08/17 13:42:38;;;;;;;3.60;2.13;;;27.90;55.40;;;;;;5060546;27;89209;-49
2022/08/17 13:45:39;;;;;;;5.30;2.63;;;27.90;55.60;;;;;;5064231;27;88754;-50
2022/08/17 13:48:13;;;;;;;2.80;2.07;;;27.90;55.60;;;;;;5064587;27;87050;-50
2022/08/17 13:50:44;;;;;;;2.20;1.93;;;27.90;55.60;;;;;;5064177;27;86922;-50